createdAt,value
2019-04-10T00:02:15.408Z,21.33
2019-04-10T00:04:49.511Z,20.35
2019-04-10T00:07:23.635Z,21.02
2019-04-10T00:09:57.959Z,21.48
2019-04-10T00:12:32.119Z,20.97
2019-04-10T00:15:07.246Z,20.85
2019-04-10T00:17:41.449Z,20.90
2019-04-10T00:20:16.286Z,20.80
2019-04-10T00:22:50.682Z,20.43
2019-04-10T00:25:24.811Z,20.70
2019-04-10T00:27:59.284Z,19.95
2019-04-10T00:30:33.653Z,20.08
2019-04-10T00:33:08.274Z,19.70
2019-04-10T00:35:43.626Z,20.90
2019-04-10T00:38:17.981Z,21.17
2019-04-10T00:40:52.362Z,21.80
2019-04-10T00:43:26.726Z,22.07
2019-04-10T00:46:02.023Z,21.25
2019-04-10T00:48:36.285Z,21.95
2019-04-10T00:51:10.876Z,22.25
2019-04-10T00:53:45.532Z,21.33
2019-04-10T00:56:20.748Z,21.12
2019-04-10T00:58:55.446Z,22.17
2019-04-10T01:01:29.874Z,21.65
2019-04-10T01:04:04.406Z,21.12
2019-04-10T01:06:40.375Z,20.60
2019-04-10T01:09:15.401Z,21.33
2019-04-10T01:11:49.766Z,21.52
2019-04-10T01:14:25.230Z,21.95
2019-04-10T01:17:02.052Z,22.42
2019-04-10T01:19:36.657Z,22.07
2019-04-10T01:22:11.347Z,22.45
2019-04-10T01:24:46.095Z,21.90
2019-04-10T01:27:20.446Z,22.32
2019-04-10T01:29:54.298Z,22.50
2019-04-10T01:32:41.807Z,22.27
2019-04-10T01:35:16.198Z,22.35
2019-04-10T01:37:56.158Z,22.77
2019-04-10T01:40:27.383Z,22.55
2019-04-10T01:43:08.334Z,21.60
2019-04-10T01:45:38.211Z,24.57
2019-04-10T01:48:13.209Z,25.05
2019-04-10T01:50:47.560Z,25.55
2019-04-10T01:53:21.903Z,24.63
2019-04-10T01:55:56.089Z,24.98
2019-04-10T01:58:30.183Z,25.20
2019-04-10T02:01:18.629Z,26.00
2019-04-10T02:03:52.588Z,25.85
2019-04-10T02:06:27.421Z,26.05
2019-04-10T02:09:02.537Z,24.40
2019-04-10T02:11:39.778Z,25.27
2019-04-10T02:14:14.316Z,25.57
2019-04-10T02:16:49.742Z,24.55
2019-04-10T02:19:23.960Z,25.27
2019-04-10T02:22:00.203Z,25.48
2019-04-10T02:24:35.480Z,26.07
2019-04-10T02:27:09.932Z,26.55
2019-04-10T02:29:44.025Z,27.35
2019-04-10T02:32:18.969Z,27.65
2019-04-10T02:34:55.135Z,27.93
2019-04-10T02:37:31.022Z,27.85
2019-04-10T02:40:07.133Z,29.65
2019-04-10T02:42:43.121Z,29.25
2019-04-10T02:45:18.952Z,31.42
2019-04-10T02:47:54.927Z,31.40
2019-04-10T02:50:29.383Z,31.73
2019-04-10T02:53:05.371Z,30.80
2019-04-10T02:55:40.865Z,31.60
2019-04-10T02:58:16.032Z,30.25
2019-04-10T03:00:53.874Z,31.40
2019-04-10T03:03:27.552Z,31.27
2019-04-10T03:06:02.596Z,32.17
2019-04-10T03:08:54.958Z,32.45
2019-04-10T03:11:14.463Z,32.38
2019-04-10T03:13:49.099Z,31.25
2019-04-10T03:16:23.689Z,30.80
2019-04-10T03:18:57.568Z,31.17
2019-04-10T03:21:31.604Z,32.38
2019-04-10T03:24:06.275Z,31.48
2019-04-10T03:26:40.256Z,33.75
2019-04-10T03:29:14.222Z,36.00
2019-04-10T03:31:50.504Z,39.45
2019-04-10T03:34:28.394Z,38.67
2019-04-10T03:37:02.813Z,39.65
2019-04-10T03:39:38.467Z,39.23
2019-04-10T03:42:12.747Z,38.58
2019-04-10T03:44:47.168Z,38.60
2019-04-10T03:47:21.182Z,37.50
2019-04-10T03:49:55.438Z,37.67
2019-04-10T03:52:29.532Z,36.77
2019-04-10T03:55:04.859Z,36.17
2019-04-10T03:57:38.797Z,36.88
2019-04-10T04:00:14.128Z,36.80
2019-04-10T04:02:48.320Z,36.70
2019-04-10T04:05:22.450Z,35.98
2019-04-10T04:07:57.889Z,35.92
2019-04-10T04:10:32.868Z,36.98
2019-04-10T04:13:07.521Z,38.13
2019-04-10T04:15:42.190Z,35.98
2019-04-10T04:18:17.115Z,36.08
2019-04-10T04:20:51.323Z,36.00
2019-04-10T04:23:25.791Z,38.42
2019-04-10T04:26:00.918Z,39.30
2019-04-10T04:28:36.230Z,41.02
2019-04-10T04:31:10.476Z,43.15
2019-04-10T04:33:45.000Z,42.73
2019-04-10T04:36:20.301Z,43.02
2019-04-10T04:38:54.567Z,43.63
2019-04-10T04:41:29.038Z,44.10
2019-04-10T04:44:03.960Z,43.98
2019-04-10T04:46:38.687Z,43.02
2019-04-10T04:49:13.781Z,41.55
2019-04-10T04:51:48.131Z,42.58
2019-04-10T04:54:22.062Z,39.88
2019-04-10T04:56:56.316Z,68.33
2019-04-10T04:59:30.531Z,57.23
2019-04-10T05:02:05.786Z,56.98
2019-04-10T05:04:40.142Z,55.23
2019-04-10T05:07:14.941Z,54.38
2019-04-10T05:09:50.447Z,52.08
2019-04-10T05:12:25.549Z,49.70
2019-04-10T05:15:00.376Z,50.15
2019-04-10T05:17:35.124Z,49.10
2019-04-10T05:20:11.217Z,46.88
2019-04-10T05:22:45.671Z,48.73
2019-04-10T05:25:20.954Z,45.05
2019-04-10T05:27:55.466Z,44.33
2019-04-10T05:30:29.679Z,45.05
2019-04-10T05:33:04.058Z,45.20
2019-04-10T05:35:39.821Z,44.85
2019-04-10T05:38:13.782Z,43.75
2019-04-10T05:40:48.537Z,43.70
2019-04-10T05:43:22.640Z,45.35
2019-04-10T05:45:57.169Z,43.10
2019-04-10T05:48:31.682Z,41.68
2019-04-10T05:51:07.944Z,41.30
2019-04-10T05:53:42.956Z,40.23
2019-04-10T05:56:19.058Z,38.50
2019-04-10T05:58:53.322Z,39.63
2019-04-10T06:01:35.235Z,38.23
2019-04-10T06:04:05.054Z,37.40
2019-04-10T06:06:39.265Z,37.05
2019-04-10T06:09:14.308Z,37.55
2019-04-10T06:11:49.015Z,35.70
2019-04-10T06:14:24.220Z,36.85
2019-04-10T06:17:01.257Z,35.95
2019-04-10T06:19:34.431Z,35.73
2019-04-10T06:22:09.717Z,34.65
2019-04-10T06:24:44.677Z,34.10
2019-04-10T06:27:18.718Z,34.40
2019-04-10T06:29:53.148Z,35.25
2019-04-10T06:32:27.560Z,34.33
2019-04-10T06:35:02.069Z,32.70
2019-04-10T06:37:36.522Z,31.37
2019-04-10T06:40:18.158Z,32.48
2019-04-10T06:42:51.558Z,32.85
2019-04-10T06:45:26.100Z,31.37
2019-04-10T06:48:00.515Z,32.78
2019-04-10T06:50:34.988Z,31.85
2019-04-10T06:53:10.183Z,33.15
2019-04-10T06:55:44.899Z,33.67
2019-04-10T06:58:20.112Z,32.48
2019-04-10T07:01:01.498Z,32.42
2019-04-10T07:03:50.762Z,32.53
2019-04-10T07:06:17.585Z,32.98
2019-04-10T07:08:50.852Z,33.92
2019-04-10T07:11:30.513Z,33.67
2019-04-10T07:14:01.768Z,33.63
2019-04-10T07:16:37.033Z,33.45
2019-04-10T07:19:13.111Z,33.05
2019-04-10T07:21:47.304Z,31.80
2019-04-10T07:24:21.343Z,32.00
2019-04-10T07:27:00.228Z,31.05
2019-04-10T07:29:32.510Z,30.82
2019-04-10T07:32:09.646Z,31.42
2019-04-10T07:34:42.582Z,30.27
2019-04-10T07:37:18.454Z,29.48
2019-04-10T07:39:53.046Z,29.25
2019-04-10T07:42:33.916Z,29.15
2019-04-10T07:45:03.257Z,28.62
2019-04-10T07:47:38.031Z,28.60
2019-04-10T07:50:14.251Z,27.45
2019-04-10T07:52:48.503Z,27.98
2019-04-10T07:55:23.878Z,27.32
2019-04-10T07:57:59.248Z,27.75
2019-04-10T08:00:34.411Z,26.73
2019-04-10T08:03:08.859Z,26.77
2019-04-10T08:05:44.034Z,26.42
2019-04-10T08:08:19.257Z,26.60
2019-04-10T08:10:53.146Z,27.37
2019-04-10T08:13:26.938Z,29.05
2019-04-10T08:16:00.806Z,28.17
2019-04-10T08:18:37.711Z,27.40
2019-04-10T08:21:11.918Z,27.07
2019-04-10T08:23:46.574Z,27.00
2019-04-10T08:26:21.392Z,27.02
2019-04-10T08:28:57.148Z,26.37
2019-04-10T08:31:32.840Z,25.23
2019-04-10T08:34:07.081Z,25.77
2019-04-10T08:36:41.079Z,25.40
2019-04-10T08:39:28.437Z,25.40
2019-04-10T08:41:52.207Z,25.02
2019-04-10T08:44:26.371Z,24.60
2019-04-10T08:47:00.694Z,25.40
2019-04-10T08:49:34.916Z,23.62
2019-04-10T08:52:10.326Z,24.02
2019-04-10T08:54:44.770Z,22.70
2019-04-10T08:57:19.326Z,24.32
2019-04-10T08:59:54.148Z,23.60
2019-04-10T09:02:28.401Z,23.18
2019-04-10T09:05:03.625Z,22.32
2019-04-10T09:07:38.370Z,23.27
2019-04-10T09:10:12.526Z,22.60
2019-04-10T09:12:47.268Z,22.95
2019-04-10T09:15:21.755Z,22.45
2019-04-10T09:17:55.987Z,21.75
2019-04-10T09:20:30.958Z,23.92
2019-04-10T09:25:41.612Z,22.65
2019-04-10T09:28:16.347Z,21.20
2019-04-10T09:30:51.300Z,21.68
2019-04-10T09:33:28.227Z,20.97
2019-04-10T09:36:02.643Z,21.20
2019-04-10T09:38:37.068Z,21.48
2019-04-10T09:41:12.272Z,21.20
2019-04-10T09:43:47.714Z,21.17
2019-04-10T09:46:22.123Z,21.17
2019-04-10T09:48:56.458Z,20.37
2019-04-10T09:51:31.856Z,19.98
2019-04-10T09:54:07.794Z,19.75
2019-04-10T09:56:42.057Z,19.32
2019-04-10T09:59:16.481Z,18.92
2019-04-10T10:01:51.414Z,18.80
2019-04-10T10:04:26.041Z,18.25
2019-04-10T10:07:00.480Z,18.70
2019-04-10T10:09:34.805Z,18.57
2019-04-10T10:12:09.617Z,18.23
2019-04-10T10:14:44.309Z,17.62
2019-04-10T10:17:20.210Z,18.65
2019-04-10T10:19:55.374Z,17.15
2019-04-10T10:22:30.881Z,16.90
2019-04-10T10:25:06.968Z,17.32
2019-04-10T10:27:42.580Z,17.87
2019-04-10T10:30:17.931Z,18.87
2019-04-10T10:32:53.176Z,17.42
2019-04-10T10:35:29.409Z,16.93
2019-04-10T10:38:05.302Z,17.55
2019-04-10T10:40:39.844Z,17.52
2019-04-10T10:43:14.201Z,16.87
2019-04-10T10:45:49.186Z,17.67
2019-04-10T10:48:23.994Z,16.70
2019-04-10T10:50:58.305Z,16.35
2019-04-10T10:53:32.442Z,16.77
2019-04-10T10:56:07.301Z,16.00
2019-04-10T10:58:41.503Z,15.75
2019-04-10T11:01:15.875Z,16.32
2019-04-10T11:03:51.077Z,15.40
2019-04-10T11:06:25.270Z,15.10
2019-04-10T11:08:59.685Z,15.98
2019-04-10T11:11:34.743Z,15.88
2019-04-10T11:14:10.962Z,15.75
2019-04-10T11:16:45.537Z,15.45
2019-04-10T11:19:21.095Z,15.32
2019-04-10T11:21:56.751Z,15.03
2019-04-10T11:24:31.614Z,14.53
2019-04-10T11:27:06.316Z,14.63
2019-04-10T11:29:42.614Z,15.03
2019-04-10T11:32:17.622Z,15.35
2019-04-10T11:34:52.880Z,14.60
2019-04-10T11:37:37.476Z,15.03
2019-04-10T11:40:05.163Z,14.70
2019-04-10T11:42:40.167Z,14.53
2019-04-10T11:45:18.153Z,14.95
2019-04-10T11:47:52.831Z,14.90
2019-04-10T11:50:28.564Z,13.95
2019-04-10T11:53:04.402Z,15.13
2019-04-10T11:58:17.805Z,14.60
2019-04-10T12:00:54.632Z,14.20
2019-04-10T12:03:28.244Z,13.98
2019-04-10T12:06:04.340Z,14.68
2019-04-10T12:09:04.370Z,14.20
2019-04-10T12:11:18.538Z,14.07
2019-04-10T12:13:50.488Z,14.47
2019-04-10T12:16:25.163Z,13.70
2019-04-10T12:18:59.419Z,14.70
2019-04-10T12:21:33.756Z,15.72
2019-04-10T12:24:07.885Z,16.07
2019-04-10T12:26:42.374Z,15.50
2019-04-10T12:29:16.412Z,16.05
2019-04-10T12:31:52.309Z,15.83
2019-04-10T12:34:26.726Z,15.93
2019-04-10T12:37:01.105Z,15.25
2019-04-10T12:39:36.342Z,14.68
2019-04-10T12:42:10.520Z,15.70
2019-04-10T12:44:44.576Z,15.05
2019-04-10T12:47:18.790Z,15.55
2019-04-10T12:49:52.724Z,15.72
2019-04-10T12:52:27.099Z,17.48
2019-04-10T12:55:01.915Z,18.62
2019-04-10T12:57:37.057Z,18.20
2019-04-10T13:00:15.889Z,17.73
2019-04-10T13:02:52.438Z,17.10
2019-04-10T13:05:29.335Z,16.95
2019-04-10T13:08:14.627Z,17.62
2019-04-10T13:10:40.473Z,16.50
2019-04-10T13:13:14.616Z,16.23
2019-04-10T13:15:49.754Z,17.02
2019-04-10T13:18:24.669Z,16.90
2019-04-10T13:20:58.959Z,17.10
2019-04-10T13:23:33.151Z,17.25
2019-04-10T13:26:09.620Z,15.90
2019-04-10T13:28:44.099Z,15.93
2019-04-10T13:31:19.253Z,16.42
2019-04-10T13:33:53.365Z,15.83
2019-04-10T13:36:27.490Z,15.85
2019-04-10T13:39:02.486Z,15.88
2019-04-10T13:41:38.632Z,15.85
2019-04-10T13:44:12.718Z,15.53
2019-04-10T13:46:46.966Z,16.02
2019-04-10T13:49:21.911Z,16.27
2019-04-10T13:51:57.498Z,15.85
2019-04-10T13:54:36.765Z,16.27
2019-04-10T13:57:11.905Z,16.52
2019-04-10T13:59:46.934Z,17.02
2019-04-10T14:02:32.232Z,15.38
2019-04-10T14:05:07.900Z,16.50
2019-04-10T14:07:44.934Z,16.70
2019-04-10T14:10:20.920Z,16.67
2019-04-10T14:12:56.411Z,16.97
2019-04-10T14:15:31.744Z,16.25
2019-04-10T14:18:08.168Z,16.85
2019-04-10T14:20:43.721Z,16.50
2019-04-10T14:23:23.881Z,17.60
2019-04-10T14:26:30.117Z,17.62
2019-04-10T14:29:02.187Z,18.20
2019-04-10T14:31:42.675Z,19.27
2019-04-10T14:34:18.819Z,19.25
2019-04-10T14:36:53.291Z,20.62
2019-04-10T14:39:27.585Z,21.80
2019-04-10T14:42:02.341Z,19.17
2019-04-10T14:44:36.857Z,20.10
2019-04-10T14:47:13.480Z,20.68
2019-04-10T14:49:47.814Z,24.15
2019-04-10T14:52:23.223Z,24.85
2019-04-10T14:55:02.101Z,23.20
2019-04-10T14:57:36.947Z,24.02
2019-04-10T15:00:17.297Z,26.70
2019-04-10T15:02:51.743Z,25.65
2019-04-10T15:05:25.944Z,24.47
2019-04-10T15:08:01.597Z,25.40
2019-04-10T15:10:36.160Z,25.35
2019-04-10T15:13:16.247Z,26.35
2019-04-10T15:15:46.229Z,25.43
2019-04-10T15:18:20.522Z,24.90
2019-04-10T15:20:56.571Z,24.30
2019-04-10T15:23:31.692Z,24.47
2019-04-10T15:26:06.475Z,25.50
2019-04-10T15:28:41.412Z,24.80
2019-04-10T15:31:15.823Z,26.95
2019-04-10T15:33:49.916Z,28.52
2019-04-10T15:36:25.198Z,28.17
2019-04-10T15:39:00.371Z,29.50
2019-04-10T15:41:39.197Z,28.50
2019-04-10T15:44:14.880Z,28.47
2019-04-10T15:46:49.187Z,28.35
2019-04-10T15:49:23.429Z,28.05
2019-04-10T15:51:57.365Z,26.80
2019-04-10T15:54:32.114Z,25.30
2019-04-10T15:57:06.831Z,26.27
2019-04-10T15:59:41.052Z,24.77
2019-04-10T16:02:15.446Z,25.00
2019-04-10T16:04:49.473Z,23.62
2019-04-10T16:07:24.452Z,23.80
2019-04-10T16:10:07.136Z,23.27
2019-04-10T16:12:41.671Z,22.87
2019-04-10T16:15:17.265Z,23.52
2019-04-10T16:17:59.194Z,23.15
2019-04-10T16:20:34.701Z,22.50
2019-04-10T16:23:31.412Z,22.25
2019-04-10T16:26:07.050Z,21.80
2019-04-10T16:28:41.143Z,22.45
2019-04-10T16:31:15.303Z,22.02
2019-04-10T16:33:50.505Z,22.32
2019-04-10T16:36:26.332Z,22.32
2019-04-10T16:39:00.887Z,21.68
2019-04-10T16:41:37.544Z,20.85
2019-04-10T16:44:13.040Z,21.52
2019-04-10T16:46:49.446Z,21.50
2019-04-10T16:49:23.203Z,21.85
2019-04-10T16:51:58.697Z,20.82
2019-04-10T16:54:33.336Z,22.35
2019-04-10T16:57:08.257Z,21.50
2019-04-10T16:59:42.676Z,21.27
2019-04-10T17:02:17.910Z,21.07
2019-04-10T17:04:52.330Z,21.27
2019-04-10T17:07:27.271Z,21.00
2019-04-10T17:10:12.626Z,21.25
2019-04-10T17:12:38.068Z,20.90
2019-04-10T17:15:12.851Z,20.17
2019-04-10T17:17:47.059Z,20.85
2019-04-10T17:20:22.419Z,21.05
2019-04-10T17:22:57.217Z,21.85
2019-04-10T17:25:32.315Z,21.23
2019-04-10T17:28:08.052Z,21.42
2019-04-10T17:30:42.364Z,20.65
2019-04-10T17:33:16.698Z,21.17
2019-04-10T17:35:51.803Z,21.07
2019-04-10T17:38:26.747Z,21.02
2019-04-10T17:41:04.461Z,20.00
2019-04-10T17:43:38.695Z,19.40
2019-04-10T17:46:13.215Z,22.60
2019-04-10T17:48:47.746Z,21.45
2019-04-10T17:51:22.070Z,21.50
2019-04-10T17:53:57.850Z,22.32
2019-04-10T17:56:32.593Z,21.05
2019-04-10T17:59:07.876Z,20.00
2019-04-10T18:01:43.237Z,20.32
2019-04-10T18:04:17.973Z,20.65
2019-04-10T18:06:52.081Z,20.52
2019-04-10T18:09:27.883Z,19.55
2019-04-10T18:12:02.200Z,20.00
2019-04-10T18:14:39.104Z,20.32
2019-04-10T18:17:12.216Z,19.52
2019-04-10T18:19:46.236Z,20.23
2019-04-10T18:22:20.671Z,19.95
2019-04-10T18:24:55.732Z,19.92
2019-04-10T18:27:30.266Z,20.00
2019-04-10T18:30:05.739Z,19.90
2019-04-10T18:32:40.237Z,19.92
2019-04-10T18:35:14.528Z,18.70
2019-04-10T18:37:49.100Z,19.52
2019-04-10T18:40:23.432Z,18.60
2019-04-10T18:42:59.156Z,18.50
2019-04-10T18:45:33.714Z,19.12
2019-04-10T18:48:08.327Z,19.37
2019-04-10T18:50:43.457Z,19.50
2019-04-10T18:53:17.682Z,19.12
2019-04-10T18:55:52.326Z,20.90
2019-04-10T18:58:29.707Z,20.35
2019-04-10T19:01:31.917Z,19.32
2019-04-10T19:04:14.092Z,19.43
2019-04-10T19:06:56.850Z,19.65
2019-04-10T19:09:32.518Z,19.62
2019-04-10T19:12:06.948Z,18.25
2019-04-10T19:14:42.535Z,19.07
2019-04-10T19:17:17.119Z,18.62
2019-04-10T19:19:52.468Z,17.98
2019-04-10T19:22:26.626Z,17.70
2019-04-10T19:25:00.899Z,16.97
2019-04-10T19:27:34.674Z,18.75
2019-04-10T19:30:17.872Z,18.32
2019-04-10T19:32:51.987Z,17.23
2019-04-10T19:35:26.693Z,17.30
2019-04-10T19:38:01.062Z,17.57
2019-04-10T19:40:36.966Z,16.60
2019-04-10T19:43:11.484Z,16.87
2019-04-10T19:45:45.601Z,17.25
2019-04-10T19:48:19.790Z,16.40
2019-04-10T19:50:53.978Z,17.15
2019-04-10T19:53:28.963Z,18.37
2019-04-10T19:56:04.380Z,18.25
2019-04-10T19:58:38.655Z,17.50
2019-04-10T20:01:13.124Z,17.87
2019-04-10T20:03:48.012Z,16.77
2019-04-10T20:06:23.826Z,17.85
2019-04-10T20:08:57.987Z,17.55
2019-04-10T20:11:39.037Z,17.85
2019-04-10T20:14:08.666Z,17.75
2019-04-10T20:16:43.861Z,17.10
2019-04-10T20:19:18.217Z,17.17
2019-04-10T20:21:52.824Z,16.50
2019-04-10T20:24:27.155Z,17.23
2019-04-10T20:27:01.593Z,17.02
2019-04-10T20:29:35.557Z,16.23
2019-04-10T20:32:11.191Z,17.17
2019-04-10T20:34:45.858Z,16.80
2019-04-10T20:37:20.734Z,16.97
2019-04-10T20:39:55.879Z,16.87
2019-04-10T20:42:38.325Z,17.20
2019-04-10T20:45:14.362Z,17.50
2019-04-10T20:47:49.793Z,16.73
2019-04-10T20:50:23.978Z,16.62
2019-04-10T20:53:01.885Z,16.05
2019-04-10T20:55:36.217Z,17.10
2019-04-10T20:58:11.283Z,16.48
2019-04-10T21:00:45.586Z,16.52
2019-04-10T21:03:19.721Z,17.40
2019-04-10T21:05:53.749Z,17.42
2019-04-10T21:08:27.867Z,15.68
2019-04-10T21:11:03.297Z,17.20
2019-04-10T21:13:38.412Z,16.15
2019-04-10T21:16:13.398Z,16.27
2019-04-10T21:18:48.273Z,16.87
2019-04-10T21:21:22.310Z,16.93
2019-04-10T21:23:56.545Z,16.75
2019-04-10T21:26:31.219Z,16.50
2019-04-10T21:29:09.455Z,16.15
2019-04-10T21:32:03.240Z,16.75
2019-04-10T21:34:43.288Z,17.60
2019-04-10T21:37:17.917Z,16.82
2019-04-10T21:39:52.317Z,17.17
2019-04-10T21:42:27.211Z,16.52
2019-04-10T21:45:01.962Z,16.32
2019-04-10T21:47:36.049Z,15.95
2019-04-10T21:50:11.080Z,16.75
2019-04-10T21:52:45.528Z,16.75
2019-04-10T21:55:20.992Z,17.23
2019-04-10T21:57:55.522Z,17.25
2019-04-10T22:00:54.514Z,15.68
2019-04-10T22:03:30.216Z,16.65
2019-04-10T22:06:20.081Z,16.32
2019-04-10T22:09:12.619Z,17.17
2019-04-10T22:11:51.623Z,16.50
2019-04-10T22:14:26.146Z,17.15
2019-04-10T22:17:00.450Z,15.85
2019-04-10T22:19:35.710Z,17.25
2019-04-10T22:22:11.341Z,16.93
2019-04-10T22:24:46.305Z,17.15
2019-04-10T22:27:20.628Z,16.57
2019-04-10T22:29:54.969Z,16.90
2019-04-10T22:32:29.387Z,16.70
2019-04-10T22:35:03.709Z,17.42
2019-04-10T22:37:37.846Z,18.15
2019-04-10T22:40:13.014Z,17.62
2019-04-10T22:42:48.627Z,16.65
2019-04-10T22:45:33.088Z,17.05
2019-04-10T22:48:08.315Z,17.37
2019-04-10T22:50:42.933Z,17.73
2019-04-10T22:53:19.555Z,16.85
2019-04-10T22:55:56.357Z,17.20
2019-04-10T22:58:31.618Z,17.42
2019-04-10T23:01:06.883Z,17.23
2019-04-10T23:03:41.115Z,17.12
2019-04-10T23:06:15.373Z,17.12
2019-04-10T23:08:49.701Z,17.12
2019-04-10T23:11:34.828Z,17.40
2019-04-10T23:14:00.541Z,17.87
2019-04-10T23:16:35.734Z,18.75
2019-04-10T23:19:10.223Z,18.45
2019-04-10T23:21:44.938Z,19.70
2019-04-10T23:24:19.128Z,19.05
2019-04-10T23:26:53.372Z,19.48
2019-04-10T23:29:29.269Z,18.62
2019-04-10T23:32:03.834Z,19.23
2019-04-10T23:34:38.943Z,18.87
2019-04-10T23:37:13.180Z,18.35
2019-04-10T23:39:48.209Z,19.95
2019-04-10T23:42:23.284Z,18.70
2019-04-10T23:44:57.548Z,18.85
2019-04-10T23:47:31.849Z,18.80
2019-04-10T23:50:08.065Z,18.67
2019-04-10T23:52:42.321Z,19.67
2019-04-10T23:55:17.669Z,19.98
2019-04-10T23:57:52.019Z,19.42
